ButlerWeather Station
Hourly Leaf Wetness Data

Source: University of Missouri

To the bottom of the page

Year Month Day Hour Leaf Wetness Total
Precipitation
Avg. Temp Avg. Rel.
Humidity
Wind
Speed
CST mV in mm F C % mph
2022 04 27 1:00 261.5 0.0 0.00 47.8 8.8 51.18 n/a
2022 04 27 2:00 260.9 0.0 0.00 47.8 8.8 49.98 n/a
2022 04 27 3:00 260.9 0.0 0.00 47.7 8.7 49.21 n/a
2022 04 27 4:00 260.9 0.0 0.00 47.6 8.6 49.74 n/a
2022 04 27 5:00 260.9 0.0 0.00 46.9 8.3 51.49 n/a
2022 04 27 6:00 260.9 0.0 0.00 46.2 7.9 53.86 n/a
2022 04 27 7:00 260.1 0.0 0.00 48.3 9.1 51.91 n/a
2022 04 27 8:00 258.9 0.0 0.00 53.7 12.1 45.17 n/a
2022 04 27 9:00 258.1 0.0 0.00 59.1 15.1 42.63 n/a
2022 04 27 10:00 258.0 0.0 0.00 62.5 16.9 43.03 n/a
2022 04 27 11:00 257.7 0.0 0.00 65.5 18.6 40.22 n/a
2022 04 27 12:00 257.4 0.0 0.00 67.8 19.9 37.34 n/a
2022 04 27 13:00 257.3 0.0 0.00 69.7 20.9 34.39 n/a
2022 04 27 14:00 257.3 0.0 0.00 71.4 21.9 30.67 n/a
2022 04 27 15:00 257.3 0.0 0.00 72.6 22.6 28.77 n/a
2022 04 27 16:00 257.3 0.0 0.00 71.8 22.1 27.72 n/a
2022 04 27 17:00 257.3 0.0 0.00 71.2 21.8 28.7 n/a
2022 04 27 18:00 257.5 0.0 0.00 70.6 21.4 29.42 n/a
2022 04 27 19:00 258.0 0.0 0.00 69.5 20.9 31.84 n/a
2022 04 27 20:00 258.1 0.0 0.00 68.0 20.0 34.01 n/a
2022 04 27 21:00 258.6 0.0 0.00 66.1 18.9 36.38 n/a
2022 04 27 22:00 258.7 0.0 0.00 64.6 18.1 37.23 n/a
2022 04 27 23:00 258.7 0.0 0.00 64.5 18.1 36.73 n/a
2022 04 27 24:00 258.7 0.0 0.00 63.9 17.7 38.28 n/a
2022 04 28 1:00 258.7 0.0 0.00 63.5 17.5 38.68 n/a
2022 04 28 2:00 258.7 0.0 0.00 62.0 16.7 39.72 n/a
2022 04 28 3:00 258.7 0.0 0.00 60.9 16.0 41.55 n/a
2022 04 28 4:00 259.2 0.0 0.00 60.1 15.6 44.11 n/a
2022 04 28 5:00 259.4 0.0 0.00 59.3 15.2 46.06 n/a
2022 04 28 6:00 259.4 0.0 0.00 59.2 15.1 46.53 n/a
2022 04 28 7:00 259.4 0.0 0.00 59.3 15.2 47.65 n/a
2022 04 28 8:00 259.4 0.0 0.00 60.4 15.8 48.09 n/a
2022 04 28 9:00 259.4 0.0 0.00 61.8 16.5 47.96 n/a
2022 04 28 10:00 259.4 0.0 0.00 63.3 17.4 48.17 n/a
2022 04 28 11:00 Wet 342.7 0.0 0.25 61.3 16.3 71.41 n/a
2022 04 28 12:00 Wet 430.0 0.1 1.27 59.9 15.5 78.33 n/a
2022 04 28 13:00 Wet 332.4 0.0 0.25 58.7 14.8 81.7 n/a
2022 04 28 14:00 262.1 0.0 0.00 60.7 15.9 76.96 n/a
2022 04 28 15:00 261.4 0.0 0.00 63.7 17.6 68.3 n/a
2022 04 28 16:00 261.1 0.0 0.00 64.5 18.0 66.69 n/a
2022 04 28 17:00 261.3 0.0 0.00 62.6 17.0 67.88 n/a
2022 04 28 18:00 261.8 0.0 0.00 60.6 15.9 71.33 n/a
2022 04 28 19:00 262.1 0.0 0.00 59.3 15.2 73.93 n/a
2022 04 28 20:00 262.6 0.0 0.00 58.6 14.8 76.09 n/a
2022 04 28 21:00 262.5 0.0 0.00 58.5 14.8 74.68 n/a
2022 04 28 22:00 262.4 0.0 0.00 58.3 14.6 74.02 n/a
2022 04 28 23:00 262.4 0.0 0.00 58.3 14.6 73.64 n/a
2022 04 28 24:00 262.2 0.0 0.00 58.1 14.5 72.55 n/a
2022 04 29 1:00 262.8 0.0 0.00 57.3 14.1 75.09 n/a
2022 04 29 2:00 266.8 0.0 0.00 57.1 14.0 74.19 n/a
2022 04 29 3:00 267.3 0.0 0.00 56.9 13.8 73.66 n/a
2022 04 29 4:00 263.0 0.0 0.00 56.9 13.8 71.85 n/a
2022 04 29 5:00 262.7 0.0 0.00 57.1 14.0 69.43 n/a
2022 04 29 6:00 262.1 0.0 0.00 58.4 14.7 65.12 n/a
2022 04 29 7:00 Wet 476.7 0.4 10.92 57.0 13.9 76.37 n/a
2022 04 29 8:00 Wet 539.3 0.4 10.67 54.7 12.6 91.3 n/a
2022 04 29 9:00 Wet 410.2 0.1 2.29 58.9 14.9 81.7 n/a
2022 04 29 10:00 263.4 0.0 0.00 60.7 15.9 74.62 n/a
2022 04 29 11:00 261.8 0.0 0.00 63.1 17.3 71.34 n/a
2022 04 29 12:00 262.1 0.0 0.00 63.7 17.6 73.31 n/a
2022 04 29 13:00 262.6 0.0 0.00 63.2 17.3 76.72 n/a
2022 04 29 14:00 261.7 0.0 0.00 65.1 18.4 76.38 n/a
2022 04 29 15:00 262.7 0.0 0.00 64.3 17.9 78.83 n/a
2022 04 29 16:00 263.2 0.0 0.00 64.1 17.8 80.4 n/a
2022 04 29 17:00 262.8 0.0 0.00 67.6 19.8 74.09 n/a
2022 04 29 18:00 262.0 0.0 0.00 72.0 22.2 62.01 n/a
2022 04 29 19:00 261.5 0.0 0.00 72.1 22.3 60.51 n/a
2022 04 29 20:00 261.4 0.0 0.00 72.4 22.4 58.28 n/a
2022 04 29 21:00 261.4 0.0 0.00 72.1 22.3 57.96 n/a
2022 04 29 22:00 261.4 0.0 0.00 72.0 22.2 57.78 n/a
2022 04 29 23:00 Wet 345.3 0.5 11.68 63.8 17.7 74.82 n/a
2022 04 29 24:00 Wet 444.2 0.1 2.29 55.9 13.3 95.2 n/a
2022 04 30 1:00 Wet 523.3 0.2 4.32 55.7 13.2 95.5 n/a
2022 04 30 2:00 Wet 376.0 0.0 0.76 55.9 13.3 93.3 n/a
2022 04 30 3:00 273.8 0.0 0.00 56.9 13.9 87.6 n/a
2022 04 30 4:00 266.7 0.0 0.00 57.0 13.9 88.8 n/a
2022 04 30 5:00 267.0 0.0 0.00 57.4 14.1 87.8 n/a
2022 04 30 6:00 266.0 0.0 0.00 56.7 13.7 85.5 n/a
2022 04 30 7:00 264.5 0.0 0.00 56.9 13.8 83.5 n/a
2022 04 30 8:00 261.8 0.0 0.00 58.8 14.9 75.19 n/a
2022 04 30 9:00 260.9 0.0 0.00 59.6 15.4 68.92 n/a
2022 04 30 10:00 260.2 0.0 0.00 61.3 16.3 63.93 n/a
2022 04 30 11:00 259.8 0.0 0.00 62.6 17.0 59.16 n/a
2022 04 30 12:00 259.5 0.0 0.00 63.7 17.6 56.22 n/a
2022 04 30 13:00 259.9 0.0 0.00 63.3 17.4 54.58 n/a
2022 04 30 14:00 260.0 0.0 0.00 62.2 16.8 51.95 n/a
2022 04 30 15:00 260.0 0.0 0.00 62.4 16.9 49.94 n/a
2022 04 30 16:00 260.0 0.0 0.00 62.1 16.7 49.5 n/a
2022 04 30 17:00 260.0 0.0 0.00 61.2 16.2 50.5 n/a
2022 04 30 18:00 260.6 0.0 0.00 60.6 15.9 51.4 n/a
2022 04 30 19:00 260.8 0.0 0.00 59.4 15.2 52.9 n/a
2022 04 30 20:00 262.2 0.0 0.00 56.2 13.5 59.46 n/a
2022 04 30 21:00 263.3 0.0 0.00 53.7 12.0 65.19 n/a
2022 04 30 22:00 263.1 0.0 0.00 53.2 11.8 64.15 n/a
2022 04 30 23:00 263.5 0.0 0.00 51.7 10.9 66.7 n/a
2022 04 30 24:00 263.5 0.0 0.00 51.5 10.8 66.13 n/a
2022 05 01 1:00 263.3 0.0 0.00 51.1 10.6 65.8 n/a
2022 05 01 2:00 263.6 0.0 0.00 49.5 9.7 68.42 n/a
2022 05 01 3:00 264.4 0.0 0.00 48.2 9.0 70.53 n/a
2022 05 01 4:00 264.0 0.0 0.00 47.8 8.8 69.97 n/a
2022 05 01 5:00 263.4 0.0 0.00 48.2 9.0 66.53 n/a
2022 05 01 6:00 263.5 0.0 0.00 46.9 8.3 68.46 n/a
2022 05 01 7:00 261.7 0.0 0.00 48.7 9.3 64.69 n/a
2022 05 01 8:00 260.3 0.0 0.00 52.1 11.2 57.83 n/a
2022 05 01 9:00 259.5 0.0 0.00 54.7 12.6 51.65 n/a
2022 05 01 10:00 258.6 0.0 0.00 58.0 14.4 44.53 n/a
2022 05 01 11:00 258.2 0.0 0.00 60.4 15.8 41.09 n/a
2022 05 01 12:00 257.8 0.0 0.00 62.5 16.9 36.45 n/a
2022 05 01 13:00 257.5 0.0 0.00 64.9 18.3 33.87 n/a
2022 05 01 14:00 257.6 0.0 0.00 66.6 19.2 32.26 n/a
2022 05 01 15:00 257.8 0.0 0.00 68.2 20.1 29.58 n/a
2022 05 01 16:00 258.0 0.0 0.00 68.5 20.3 29.06 n/a
2022 05 01 17:00 258.0 0.0 0.00 68.2 20.1 32.05 n/a
2022 05 01 18:00 258.0 0.0 0.00 68.2 20.1 32.31 n/a
2022 05 01 19:00 259.0 0.0 0.00 65.7 18.7 37.73 n/a
2022 05 01 20:00 260.1 0.0 0.00 62.3 16.8 43.66 n/a
2022 05 01 21:00 261.0 0.0 0.00 59.2 15.1 50.16 n/a
2022 05 01 22:00 261.7 0.0 0.00 57.3 14.0 54.43 n/a
2022 05 01 23:00 262.2 0.0 0.00 55.8 13.2 58.42 n/a
2022 05 01 24:00 262.5 0.0 0.00 55.3 12.9 62.13 n/a
2022 05 02 1:00 263.1 0.0 0.00 53.6 12.0 66.63 n/a
2022 05 02 2:00 262.1 0.0 0.00 55.0 12.8 58.73 n/a
2022 05 02 3:00 261.5 0.0 0.00 55.0 12.8 55.48 n/a
2022 05 02 4:00 261.9 0.0 0.00 53.4 11.9 60.76 n/a
2022 05 02 5:00 262.7 0.0 0.00 50.7 10.4 73.87 n/a
2022 05 02 6:00 262.9 0.0 0.00 49.8 9.9 75.12 n/a
2022 05 02 7:00 262.8 0.0 0.00 49.6 9.8 74.31 n/a
2022 05 02 8:00 262.3 0.0 0.00 50.2 10.1 72.27 n/a
2022 05 02 9:00 268.2 0.0 0.00 51.4 10.8 70.72 n/a
2022 05 02 10:00 Wet 357.9 0.0 0.00 52.2 11.2 73.44 n/a
2022 05 02 11:00 Wet 496.9 0.0 0.76 51.6 10.9 82.7 n/a
2022 05 02 12:00 Wet 449.0 0.0 0.25 51.8 11.0 88.3 n/a
2022 05 02 13:00 Wet 340.3 0.0 0.25 52.9 11.6 90.5 n/a
2022 05 02 14:00 Wet 345.0 0.0 0.00 54.8 12.7 91.5 n/a
2022 05 02 15:00 Wet 347.5 0.0 0.00 56.8 13.8 90.3 n/a
2022 05 02 16:00 Wet 289.6 0.0 0.00 58.0 14.5 89.1 n/a
2022 05 02 17:00 267.1 0.0 0.00 59.7 15.4 86.3 n/a
2022 05 02 18:00 Wet 472.6 0.1 1.52 59.5 15.3 89.9 n/a
2022 05 02 19:00 Wet 479.2 0.0 0.76 58.6 14.8 95.3 n/a
2022 05 02 20:00 Wet 387.9 0.0 0.25 58.3 14.6 95.9 n/a
2022 05 02 21:00 Wet 350.3 0.0 1.02 58.2 14.6 95.4 n/a
2022 05 02 22:00 Wet 404.5 0.0 0.51 55.0 12.8 91.2 n/a
2022 05 02 23:00 Wet 365.4 0.0 0.25 54.3 12.4 93.4 n/a
2022 05 02 24:00 Wet 350.9 0.0 0.00 54.2 12.3 94.7 n/a
2022 05 03 1:00 Wet 335.2 0.0 0.00 53.7 12.1 94.4 n/a
2022 05 03 2:00 Wet 314.2 0.0 0.00 52.4 11.3 94.7 n/a
2022 05 03 3:00 Wet 310.4 0.0 0.00 50.4 10.2 96.5 n/a
2022 05 03 4:00 Wet 299.9 0.0 0.00 48.6 9.2 96.2 n/a
2022 05 03 5:00 283.5 0.0 0.00 46.0 7.8 95.1 n/a
2022 05 03 6:00 268.4 0.0 0.00 45.5 7.5 89.3 n/a
2022 05 03 7:00 266.2 0.0 0.00 45.0 7.2 87.7 n/a
2022 05 03 8:00 266.0 0.0 0.00 45.1 7.3 87.7 n/a
2022 05 03 9:00 265.6 0.0 0.00 45.5 7.5 87.1 n/a
2022 05 03 10:00 265.1 0.0 0.00 45.9 7.7 85.5 n/a
2022 05 03 11:00 264.6 0.0 0.00 46.9 8.3 82.5 n/a
2022 05 03 12:00 263.6 0.0 0.00 48.5 9.2 79.32 n/a
2022 05 03 13:00 262.8 0.0 0.00 50.3 10.2 74.93 n/a
2022 05 03 14:00 262.1 0.0 0.00 52.4 11.4 70.08 n/a
2022 05 03 15:00 262.2 0.0 0.00 53.0 11.7 68.49 n/a
2022 05 03 16:00 262.1 0.0 0.00 53.3 11.8 66.99 n/a
2022 05 03 17:00 262.1 0.0 0.00 54.0 12.2 65.84 n/a
2022 05 03 18:00 262.4 0.0 0.00 53.6 12.0 66.1 n/a
2022 05 03 19:00 262.8 0.0 0.00 52.9 11.6 68.71 n/a
2022 05 03 20:00 262.9 0.0 0.00 52.3 11.3 69.18 n/a
2022 05 03 21:00 262.9 0.0 0.00 51.7 11.0 69.95 n/a
2022 05 03 22:00 263.3 0.0 0.00 51.2 10.7 71.68 n/a
2022 05 03 23:00 263.5 0.0 0.00 50.8 10.5 73.24 n/a
2022 05 03 24:00 263.5 0.0 0.00 50.5 10.3 74.34 n/a
2022 05 04 1:00 263.5 0.0 0.00 50.1 10.1 74.68 n/a
2022 05 04 2:00 263.5 0.0 0.00 49.8 9.9 76.43 n/a
2022 05 04 3:00 263.5 0.0 0.00 49.4 9.7 78.05 n/a
2022 05 04 4:00 264.1 0.0 0.00 49.2 9.5 79.92 n/a
2022 05 04 5:00 264.2 0.0 0.00 49.0 9.4 80.6 n/a
2022 05 04 6:00 264.2 0.0 0.00 48.8 9.3 81.1 n/a
2022 05 04 7:00 264.2 0.0 0.00 48.9 9.4 81.1 n/a
2022 05 04 8:00 264.1 0.0 0.00 49.0 9.4 81.7 n/a
2022 05 04 9:00 263.5 0.0 0.00 49.5 9.7 79.31 n/a
2022 05 04 10:00 263.1 0.0 0.00 50.7 10.4 76.35 n/a
2022 05 04 11:00 Wet 308.9 0.0 0.00 50.7 10.4 78.28 n/a
2022 05 04 12:00 Wet 412.3 0.0 0.25 50.8 10.4 82.2 n/a
2022 05 04 13:00 Wet 528.1 0.2 5.33 49.7 9.9 90.2 n/a
2022 05 04 14:00 Wet 493.2 0.1 2.29 49.6 9.8 94.9 n/a
2022 05 04 15:00 Wet 521.0 0.2 4.06 49.7 9.8 95.4 n/a
2022 05 04 16:00 Wet 509.4 0.1 3.56 49.8 9.9 95.8 n/a
2022 05 04 17:00 Wet 489.2 0.1 2.29 50.2 10.1 96.7 n/a
2022 05 04 18:00 Wet 376.8 0.0 0.25 51.6 10.9 95.6 n/a
2022 05 04 19:00 Wet 491.2 0.2 4.83 51.9 11.1 95.8 n/a
2022 05 04 20:00 Wet 475.9 0.1 2.03 51.5 10.9 96.9 n/a
2022 05 04 21:00 Wet 515.0 0.2 5.08 51.6 10.9 97.2 n/a
2022 05 04 22:00 Wet 533.8 0.2 4.57 51.8 11.0 97.5 n/a
2022 05 04 23:00 Wet 545.2 0.2 4.32 52.2 11.2 97.5 n/a
2022 05 04 24:00 Wet 561.0 0.2 5.33 53.2 11.8 97.4 n/a
2022 05 05 1:00 Wet 527.8 0.1 2.79 54.8 12.7 97.4 n/a
2022 05 05 2:00 Wet 499.6 0.1 1.52 55.1 12.8 97.3 n/a
2022 05 05 3:00 Wet 444.0 0.1 1.52 54.5 12.5 97.2 n/a
2022 05 05 4:00 Wet 433.6 0.0 0.51 53.0 11.6 97.4 n/a
2022 05 05 5:00 Wet 392.6 0.0 0.00 53.1 11.7 97.8 n/a
2022 05 05 6:00 Wet 335.7 0.0 0.00 53.3 11.8 97.7 n/a
2022 05 05 7:00 Wet 379.6 0.0 0.51 52.3 11.3 97.6 n/a
2022 05 05 8:00 Wet 348.2 0.0 0.00 52.5 11.4 97.8 n/a
2022 05 05 9:00 Wet 298.8 0.0 0.25 54.0 12.2 97.3 n/a
2022 05 05 10:00 265.7 0.0 0.00 56.2 13.4 92.9 n/a
2022 05 05 11:00 263.5 0.0 0.00 58.0 14.4 87.3 n/a
2022 05 05 12:00 262.9 0.0 0.00 60.4 15.8 85 n/a
2022 05 05 13:00 262.3 0.0 0.00 64.4 18.0 78.18 n/a
2022 05 05 14:00 263.0 0.0 0.00 64.0 17.8 77.12 n/a
2022 05 05 15:00 262.2 0.0 0.00 64.7 18.2 74.54 n/a
2022 05 05 16:00 262.3 0.0 0.00 66.1 18.9 73.53 n/a
2022 05 05 17:00 Wet 293.6 0.0 0.00 65.4 18.5 75.27 n/a
2022 05 05 18:00 Wet 448.2 0.2 5.84 62.8 17.1 86.2 n/a
2022 05 05 19:00 Wet 487.2 0.1 2.03 61.0 16.1 93.1 n/a
2022 05 05 20:00 Wet 475.0 0.2 5.08 60.0 15.6 95.5 n/a
2022 05 05 21:00 Wet 463.5 0.2 4.57 58.8 14.9 95.4 n/a
2022 05 05 22:00 Wet 461.2 0.1 3.05 57.4 14.1 96.4 n/a
2022 05 05 23:00 Wet 418.4 0.0 0.76 56.3 13.5 96.1 n/a
2022 05 05 24:00 Wet 345.2 0.0 0.25 55.3 12.9 95.2 n/a
2022 05 06 1:00 Wet 311.6 0.0 0.00 55.0 12.8 94.3 n/a
2022 05 06 2:00 Wet 463.4 0.0 0.51 54.5 12.5 94.5 n/a
2022 05 06 3:00 Wet 430.7 0.0 0.51 53.8 12.1 96 n/a
2022 05 06 4:00 Wet 431.0 0.0 0.00 53.2 11.8 96.2 n/a
2022 05 06 5:00 Wet 380.7 0.0 0.00 52.9 11.6 96.2 n/a
2022 05 06 6:00 Wet 347.1 0.0 0.25 52.6 11.4 96 n/a
2022 05 06 7:00 Wet 309.3 0.0 0.00 52.8 11.6 95.1 n/a
2022 05 06 8:00 276.8 0.0 0.00 53.1 11.7 93 n/a
2022 05 06 9:00 270.7 0.0 0.00 53.7 12.1 90 n/a
2022 05 06 10:00 263.5 0.0 0.00 55.9 13.3 81.3 n/a
2022 05 06 11:00 262.5 0.0 0.00 57.7 14.3 74.63 n/a
2022 05 06 12:00 261.9 0.0 0.00 59.4 15.2 71.95 n/a
2022 05 06 13:00 261.6 0.0 0.00 60.9 16.0 71.11 n/a
2022 05 06 14:00 261.7 0.0 0.00 61.6 16.4 69.5 n/a
2022 05 06 15:00 262.0 0.0 0.00 61.9 16.6 70.91 n/a
2022 05 06 16:00 261.8 0.0 0.00 63.4 17.4 66.58 n/a
2022 05 06 17:00 262.3 0.0 0.00 62.6 17.0 68.35 n/a
2022 05 06 18:00 262.4 0.0 0.00 62.7 17.1 66.61 n/a
2022 05 06 19:00 262.7 0.0 0.00 62.2 16.8 68.06 n/a
2022 05 06 20:00 264.0 0.0 0.00 60.5 15.9 73.57 n/a
2022 05 06 21:00 264.3 0.0 0.00 59.9 15.5 76.28 n/a
2022 05 06 22:00 264.0 0.0 0.00 59.8 15.4 74.84 n/a
2022 05 06 23:00 267.2 0.0 0.00 58.5 14.8 76.79 n/a
2022 05 06 24:00 281.9 0.0 0.00 55.4 13.0 85.9 n/a
2022 05 07 1:00 Wet 293.7 0.0 0.00 54.7 12.6 88.2 n/a
2022 05 07 2:00 Wet 349.0 0.0 0.00 52.9 11.6 91.3 n/a
2022 05 07 3:00 Wet 359.0 0.0 0.00 53.3 11.9 88.3 n/a
2022 05 07 4:00 Wet 336.8 0.0 0.00 52.0 11.1 85 n/a
2022 05 07 5:00 Wet 320.5 0.0 0.00 51.1 10.6 86.2 n/a
2022 05 07 6:00 Wet 299.5 0.0 0.00 50.1 10.1 87.2 n/a
2022 05 07 7:00 266.1 0.0 0.00 51.4 10.8 84.3 n/a
2022 05 07 8:00 261.8 0.0 0.00 54.7 12.6 74.33 n/a
2022 05 07 9:00 260.8 0.0 0.00 57.8 14.3 67.22 n/a
2022 05 07 10:00 260.0 0.0 0.00 60.0 15.6 62.84 n/a
2022 05 07 11:00 259.7 0.0 0.00 62.5 17.0 60.94 n/a
2022 05 07 12:00 259.3 0.0 0.00 65.0 18.4 58.32 n/a
2022 05 07 13:00 259.5 0.0 0.00 66.7 19.3 56.54 n/a
2022 05 07 14:00 259.7 0.0 0.00 68.6 20.3 51.86 n/a
2022 05 07 15:00 260.0 0.0 0.00 70.4 21.3 47.26 n/a
2022 05 07 16:00 260.0 0.0 0.00 71.6 22.0 45.98 n/a
2022 05 07 17:00 260.0 0.0 0.00 72.5 22.5 45.99 n/a
2022 05 07 18:00 259.9 0.0 0.00 72.4 22.5 45.68 n/a
2022 05 07 19:00 260.3 0.0 0.00 70.2 21.2 48.87 n/a
2022 05 07 20:00 260.7 0.0 0.00 66.9 19.4 53.38 n/a
2022 05 07 21:00 260.8 0.0 0.00 65.7 18.7 52.97 n/a
2022 05 07 22:00 260.7 0.0 0.00 65.3 18.5 53.14 n/a
2022 05 07 23:00 261.1 0.0 0.00 64.2 17.9 55.09 n/a
2022 05 07 24:00 261.3 0.0 0.00 63.9 17.7 56.18 n/a
2022 05 08 1:00 261.4 0.0 0.00 63.9 17.7 56.45 n/a
2022 05 08 2:00 261.5 0.0 0.00 63.2 17.3 58.1 n/a
2022 05 08 3:00 261.8 0.0 0.00 61.6 16.4 62.75 n/a
2022 05 08 4:00 262.1 0.0 0.00 60.4 15.8 67.08 n/a
2022 05 08 5:00 262.1 0.0 0.00 60.4 15.8 67.27 n/a
2022 05 08 6:00 261.9 0.0 0.00 60.6 15.9 62.81 n/a
2022 05 08 7:00 261.5 0.0 0.00 61.5 16.4 59.21 n/a
2022 05 08 8:00 261.4 0.0 0.00 62.2 16.8 58.52 n/a
2022 05 08 9:00 261.2 0.0 0.00 63.5 17.5 57.67 n/a
2022 05 08 10:00 260.9 0.0 0.00 64.6 18.1 59.27 n/a
2022 05 08 11:00 260.8 0.0 0.00 66.2 19.0 60.42 n/a
2022 05 08 12:00 260.8 0.0 0.00 67.3 19.6 60.84 n/a
2022 05 08 13:00 260.7 0.0 0.00 68.8 20.5 61.19 n/a
2022 05 08 14:00 260.4 0.0 0.00 71.7 22.1 58.94 n/a
2022 05 08 15:00 260.4 0.0 0.00 74.3 23.5 57.23 n/a
2022 05 08 16:00 260.7 0.0 0.00 75.4 24.1 57.17 n/a
2022 05 08 17:00 260.7 0.0 0.00 75.1 23.9 57.6 n/a
2022 05 08 18:00 260.8 0.0 0.00 75.1 23.9 59.17 n/a
2022 05 08 19:00 261.4 0.0 0.00 74.0 23.3 62.05 n/a
2022 05 08 20:00 261.4 0.0 0.00 72.9 22.7 63.73 n/a
2022 05 08 21:00 261.6 0.0 0.00 72.6 22.6 65.33 n/a
2022 05 08 22:00 262.0 0.0 0.00 72.4 22.5 65.46 n/a
2022 05 08 23:00 262.1 0.0 0.00 70.6 21.4 68.13 n/a
2022 05 08 24:00 262.5 0.0 0.00 68.9 20.5 72.29 n/a
2022 05 09 1:00 262.9 0.0 0.00 67.8 19.9 75.44 n/a
2022 05 09 2:00 263.4 0.0 0.00 67.2 19.6 78.66 n/a
2022 05 09 3:00 263.9 0.0 0.00 67.4 19.7 80.8 n/a
2022 05 09 4:00 264.1 0.0 0.00 68.1 20.1 81.7 n/a
2022 05 09 5:00 264.6 0.0 0.00 68.5 20.3 82.9 n/a
2022 05 09 6:00 264.8 0.0 0.00 69.8 21.0 83 n/a
2022 05 09 7:00 263.7 0.0 0.00 70.3 21.3 83.1 n/a
2022 05 09 8:00 262.3 0.0 0.00 73.3 22.9 77.79 n/a
2022 05 09 9:00 261.5 0.0 0.00 77.2 25.1 68.95 n/a
2022 05 09 10:00 260.8 0.0 0.00 79.6 26.5 64.72 n/a
2022 05 09 11:00 260.6 0.0 0.00 81.8 27.6 62.47 n/a
2022 05 09 12:00 260.1 0.0 0.00 83.4 28.6 60.13 n/a
2022 05 09 13:00 260.2 0.0 0.00 84.2 29.0 58.51 n/a
2022 05 09 14:00 260.2 0.0 0.00 85.4 29.6 57.46 n/a
2022 05 09 15:00 260.6 0.0 0.00 85.7 29.9 56.51 n/a
2022 05 09 16:00 260.7 0.0 0.00 86.5 30.3 54.74 n/a
2022 05 09 17:00 260.7 0.0 0.00 86.2 30.1 56.51 n/a
2022 05 09 18:00 260.7 0.0 0.00 84.3 29.0 59.37 n/a
2022 05 09 19:00 261.2 0.0 0.00 82.0 27.8 62.29 n/a
2022 05 09 20:00 262.0 0.0 0.00 79.9 26.6 67.48 n/a
2022 05 09 21:00 262.1 0.0 0.00 79.0 26.1 69.85 n/a
2022 05 09 22:00 262.4 0.0 0.00 78.2 25.6 71.19 n/a
2022 05 09 23:00 262.7 0.0 0.00 77.1 25.0 73.91 n/a
2022 05 09 24:00 263.2 0.0 0.00 76.3 24.6 76.15 n/a
2022 05 10 1:00 263.4 0.0 0.00 75.5 24.2 78.16 n/a
2022 05 10 2:00 263.9 0.0 0.00 74.6 23.7 80.1 n/a
2022 05 10 3:00 264.3 0.0 0.00 73.9 23.3 81.4 n/a
2022 05 10 4:00 264.7 0.0 0.00 73.5 23.1 81.9 n/a
2022 05 10 5:00 264.8 0.0 0.00 73.3 22.9 81.8 n/a
2022 05 10 6:00 264.3 0.0 0.00 73.7 23.2 80.7 n/a
2022 05 10 7:00 263.2 0.0 0.00 74.9 23.9 79.04 n/a
2022 05 10 8:00 262.3 0.0 0.00 76.7 24.8 77.09 n/a
2022 05 10 9:00 262.0 0.0 0.00 78.7 25.9 74.11 n/a
2022 05 10 10:00 261.9 0.0 0.00 79.8 26.5 72.36 n/a
2022 05 10 11:00 261.2 0.0 0.00 81.9 27.7 68.87 n/a
2022 05 10 12:00 260.9 0.0 0.00 82.9 28.3 66.6 n/a
2022 05 10 13:00 260.9 0.0 0.00 83.1 28.4 65.54 n/a
2022 05 10 14:00 261.1 0.0 0.00 82.8 28.2 65.47 n/a
2022 05 10 15:00 261.4 0.0 0.00 82.6 28.1 66.13 n/a
2022 05 10 16:00 261.4 0.0 0.00 82.7 28.1 66.39 n/a
2022 05 10 17:00 261.5 0.0 0.00 82.7 28.2 66.52 n/a
2022 05 10 18:00 262.0 0.0 0.00 82.2 27.9 68.28 n/a
2022 05 10 19:00 262.5 0.0 0.00 80.4 26.9 71.47 n/a
2022 05 10 20:00 263.2 0.0 0.00 78.3 25.7 74.68 n/a
2022 05 10 21:00 264.0 0.0 0.00 76.6 24.8 78.08 n/a
2022 05 10 22:00 264.8 0.0 0.00 75.2 24.0 82 n/a
2022 05 10 23:00 265.2 0.0 0.00 74.8 23.8 82.3 n/a
2022 05 10 24:00 266.6 0.0 0.00 73.6 23.1 85.6 n/a
2022 05 11 1:00 267.6 0.0 0.00 73.0 22.8 86.9 n/a
2022 05 11 2:00 268.6 0.0 0.00 72.4 22.4 88.3 n/a
2022 05 11 3:00 269.0 0.0 0.00 71.8 22.1 89.4 n/a
2022 05 11 4:00 267.3 0.0 0.00 72.2 22.4 87.1 n/a
2022 05 11 5:00 268.0 0.0 0.00 71.6 22.0 87.5 n/a
2022 05 11 6:00 267.6 0.0 0.00 71.0 21.7 88.1 n/a
2022 05 11 7:00 266.0 0.0 0.00 71.4 21.9 87.3 n/a
2022 05 11 8:00 264.3 0.0 0.00 73.1 22.8 83.1 n/a
2022 05 11 9:00 262.3 0.0 0.00 75.5 24.1 78.31 n/a
2022 05 11 10:00 261.3 0.0 0.00 77.7 25.4 74.1 n/a
2022 05 11 11:00 260.4 0.0 0.00 80.6 27.0 66.52 n/a
2022 05 11 12:00 259.9 0.0 0.00 83.0 28.3 62.19 n/a
2022 05 11 13:00 259.9 0.0 0.00 84.6 29.2 59.08 n/a
2022 05 11 14:00 260.2 0.0 0.00 86.0 30.0 61.2 n/a
2022 05 11 15:00 260.6 0.0 0.00 87.1 30.6 59.16 n/a
2022 05 11 16:00 260.7 0.0 0.00 87.7 30.9 56.81 n/a
2022 05 11 17:00 260.4 0.0 0.00 87.5 30.9 53.5 n/a
2022 05 11 18:00 260.6 0.0 0.00 86.6 30.3 55.22 n/a
2022 05 11 19:00 261.1 0.0 0.00 84.3 29.1 61.67 n/a
2022 05 11 20:00 262.1 0.0 0.00 81.8 27.7 66.56 n/a
2022 05 11 21:00 262.8 0.0 0.00 79.5 26.4 70.96 n/a
2022 05 11 22:00 263.5 0.0 0.00 77.7 25.4 75.24 n/a
2022 05 11 23:00 264.3 0.0 0.00 76.4 24.6 77.08 n/a
2022 05 11 24:00 264.8 0.0 0.00 74.6 23.7 77.54 n/a
2022 05 12 1:00 264.9 0.0 0.00 73.2 22.9 78.33 n/a
2022 05 12 2:00 264.8 0.0 0.00 72.2 22.3 78.28 n/a
2022 05 12 3:00 264.8 0.0 0.00 71.4 21.9 78.56 n/a
2022 05 12 4:00 264.8 0.0 0.00 70.0 21.1 80.5 n/a
2022 05 12 5:00 265.3 0.0 0.00 68.9 20.5 82.1 n/a
2022 05 12 6:00 265.5 0.0 0.00 68.2 20.1 83.6 n/a
2022 05 12 7:00 263.6 0.0 0.00 69.9 21.0 81.8 n/a
2022 05 12 8:00 262.3 0.0 0.00 72.6 22.5 78.56 n/a
2022 05 12 9:00 261.6 0.0 0.00 75.5 24.2 74.81 n/a
2022 05 12 10:00 260.6 0.0 0.00 79.5 26.4 66.28 n/a
2022 05 12 11:00 259.8 0.0 0.00 82.5 28.1 55.8 n/a
2022 05 12 12:00 259.2 0.0 0.00 84.6 29.2 48.81 n/a
2022 05 12 13:00 258.7 0.0 0.00 86.4 30.2 44.67 n/a
2022 05 12 14:00 258.7 0.0 0.00 87.3 30.8 42.99 n/a
2022 05 12 15:00 258.7 0.0 0.00 88.3 31.3 38.51 n/a
2022 05 12 16:00 258.5 0.0 0.00 88.8 31.6 34.54 n/a
2022 05 12 17:00 258.6 0.0 0.00 88.7 31.5 37.83 n/a
2022 05 12 18:00 258.6 0.0 0.00 87.5 30.8 38.36 n/a
2022 05 12 19:00 258.8 0.0 0.00 85.2 29.6 41.3 n/a
2022 05 12 20:00 259.4 0.0 0.00 82.2 27.9 46.92 n/a
2022 05 12 21:00 260.0 0.0 0.00 79.6 26.4 49.04 n/a
2022 05 12 22:00 261.0 0.0 0.00 75.8 24.3 55.23 n/a
2022 05 12 23:00 261.4 0.0 0.00 73.9 23.3 60.56 n/a
2022 05 12 24:00 261.5 0.0 0.00 73.0 22.8 63.41 n/a
2022 05 13 1:00 261.8 0.0 0.00 72.8 22.6 65.31 n/a
2022 05 13 2:00 262.3 0.0 0.00 72.7 22.6 69.06 n/a
2022 05 13 3:00 262.9 0.0 0.00 70.2 21.2 73.61 n/a
2022 05 13 4:00 263.4 0.0 0.00 69.0 20.6 76.06 n/a
2022 05 13 5:00 262.6 0.0 0.00 69.6 20.9 69.65 n/a
2022 05 13 6:00 261.5 0.0 0.00 69.2 20.7 60.29 n/a
2022 05 13 7:00 261.4 0.0 0.00 68.9 20.5 59.13 n/a
2022 05 13 8:00 261.8 0.0 0.00 66.1 18.9 68.19 n/a
2022 05 13 9:00 261.9 0.0 0.00 64.9 18.3 71.36 n/a
2022 05 13 10:00 260.1 0.0 0.00 69.5 20.9 57.67 n/a
2022 05 13 11:00 258.9 0.0 0.00 73.5 23.1 50.1 n/a
2022 05 13 12:00 258.3 0.0 0.00 75.4 24.1 47.25 n/a
2022 05 13 13:00 258.1 0.0 0.00 77.1 25.1 46.16 n/a
2022 05 13 14:00 258.4 0.0 0.00 78.5 25.8 48.48 n/a
2022 05 13 15:00 258.8 0.0 0.00 79.2 26.2 49.49 n/a
2022 05 13 16:00 259.2 0.0 0.00 80.2 26.8 48.86 n/a
2022 05 13 17:00 259.1 0.0 0.00 81.1 27.3 47.63 n/a
2022 05 13 18:00 259.3 0.0 0.00 80.6 27.0 47.86 n/a
2022 05 13 19:00 259.6 0.0 0.00 79.4 26.3 49.43 n/a
2022 05 13 20:00 261.1 0.0 0.00 75.5 24.2 57.76 n/a
2022 05 13 21:00 262.1 0.0 0.00 72.1 22.3 66.27 n/a
2022 05 13 22:00 262.7 0.0 0.00 71.0 21.6 70.25 n/a
2022 05 13 23:00 262.5 0.0 0.00 71.4 21.9 68.83 n/a
2022 05 13 24:00 264.3 0.0 0.00 68.9 20.5 76.86 n/a
2022 05 14 1:00 262.7 0.0 0.00 70.5 21.4 68.92 n/a
2022 05 14 2:00 262.7 0.0 0.00 69.2 20.7 70.06 n/a
2022 05 14 3:00 263.0 0.0 0.00 67.9 20.0 71.27 n/a
2022 05 14 4:00 264.4 0.0 0.00 65.9 18.8 76.8 n/a
2022 05 14 5:00 266.5 0.0 0.00 64.3 17.9 80.4 n/a
2022 05 14 6:00 265.0 0.0 0.00 64.5 18.1 79.71 n/a
2022 05 14 7:00 262.5 0.0 0.00 66.6 19.2 76.93 n/a
2022 05 14 8:00 260.4 0.0 0.00 70.1 21.2 71.83 n/a
2022 05 14 9:00 259.0 0.0 0.00 74.2 23.4 65.45 n/a
2022 05 14 10:00 257.7 0.0 0.00 77.4 25.2 60.42 n/a
2022 05 14 11:00 257.5 0.0 0.00 79.8 26.5 55.96 n/a
2022 05 14 12:00 257.2 0.0 0.00 82.0 27.8 49.57 n/a
2022 05 14 13:00 257.3 0.0 0.00 83.1 28.4 45.56 n/a
2022 05 14 14:00 257.3 0.0 0.00 84.1 29.0 43.88 n/a
2022 05 14 15:00 257.8 0.0 0.00 85.0 29.4 41.59 n/a
2022 05 14 16:00 258.0 0.0 0.00 85.7 29.8 39.08 n/a
2022 05 14 17:00 257.9 0.0 0.00 85.2 29.6 38.25 n/a
2022 05 14 18:00 258.0 0.0 0.00 85.1 29.5 37.86 n/a
2022 05 14 19:00 258.4 0.0 0.00 82.8 28.2 41.78 n/a
2022 05 14 20:00 260.2 0.0 0.00 78.2 25.7 52.95 n/a
2022 05 14 21:00 261.0 0.0 0.00 75.7 24.3 58.6 n/a
2022 05 14 22:00 261.5 0.0 0.00 74.2 23.4 61.74 n/a
2022 05 14 23:00 263.0 0.0 0.00 71.1 21.7 69.38 n/a
2022 05 14 24:00 264.9 0.0 0.00 69.0 20.6 75.34 n/a
2022 05 15 1:00 266.7 0.0 0.00 67.3 19.6 80.7 n/a
2022 05 15 2:00 269.2 0.0 0.00 65.5 18.6 85.8 n/a
2022 05 15 3:00 282.0 0.0 0.00 64.0 17.8 89.1 n/a
2022 05 15 4:00 279.0 0.0 0.00 65.0 18.3 87.2 n/a
2022 05 15 5:00 264.4 0.0 0.00 66.9 19.4 76.43 n/a
2022 05 15 6:00 263.7 0.0 0.00 66.6 19.2 73.12 n/a
2022 05 15 7:00 262.2 0.0 0.00 67.9 19.9 73.81 n/a
2022 05 15 8:00 263.1 0.0 0.00 68.7 20.4 77.98 n/a
2022 05 15 9:00 Wet 347.7 0.3 7.11 60.4 15.8 86.8 n/a
2022 05 15 10:00 Wet 290.5 0.0 0.25 62.1 16.7 81.9 n/a
2022 05 15 11:00 Wet 469.1 0.3 7.87 59.9 15.5 87.9 n/a
2022 05 15 12:00 Wet 439.7 0.1 2.03 60.0 15.6 89.6 n/a
2022 05 15 13:00 Wet 350.9 0.0 0.25 61.4 16.3 89 n/a
2022 05 15 14:00 271.1 0.0 0.00 63.0 17.2 86.2 n/a
2022 05 15 15:00 262.3 0.0 0.00 65.7 18.7 81.8 n/a
2022 05 15 16:00 262.3 0.0 0.00 69.2 20.6 73.3 n/a
2022 05 15 17:00 261.7 0.0 0.00 71.1 21.7 65.65 n/a
2022 05 15 18:00 261.4 0.0 0.00 71.8 22.1 62.35 n/a
2022 05 15 19:00 261.4 0.0 0.00 71.5 21.9 63.77 n/a
2022 05 15 20:00 262.3 0.0 0.00 70.0 21.1 68.44 n/a
2022 05 15 21:00 262.7 0.0 0.00 68.5 20.3 71.34 n/a
2022 05 15 22:00 262.7 0.0 0.00 65.7 18.7 67.78 n/a
2022 05 15 23:00 262.2 0.0 0.00 62.6 17.0 62.36 n/a
2022 05 15 24:00 264.1 0.0 0.00 59.7 15.4 68.65 n/a
2022 05 16 1:00 271.0 0.0 0.00 56.3 13.5 79.57 n/a
2022 05 16 2:00 Wet 290.9 0.0 0.00 55.1 12.8 82.9 n/a
2022 05 16 3:00 282.7 0.0 0.00 54.7 12.6 82.1 n/a
2022 05 16 4:00 Wet 310.1 0.0 0.00 52.2 11.2 87 n/a
2022 05 16 5:00 Wet 338.6 0.0 0.00 52.5 11.4 88.1 n/a
2022 05 16 6:00 Wet 317.4 0.0 0.00 53.1 11.7 84 n/a
2022 05 16 7:00 267.3 0.0 0.00 55.0 12.8 85 n/a
2022 05 16 8:00 259.7 0.0 0.00 60.4 15.8 73.75 n/a
2022 05 16 9:00 258.5 0.0 0.00 65.4 18.6 61.35 n/a
2022 05 16 10:00 257.3 0.0 0.00 69.5 20.8 51.82 n/a
2022 05 16 11:00 256.9 0.0 0.00 72.0 22.2 42.4 n/a
2022 05 16 12:00 256.3 0.0 0.00 73.3 22.9 38.57 n/a
2022 05 16 13:00 256.7 0.0 0.00 74.0 23.4 37.51 n/a
2022 05 16 14:00 256.6 0.0 0.00 74.9 23.8 34.42 n/a
2022 05 16 15:00 257.6 0.0 0.00 75.8 24.4 35.08 n/a
2022 05 16 16:00 258.0 0.0 0.00 76.1 24.5 34.44 n/a
2022 05 16 17:00 257.7 0.0 0.00 76.3 24.6 34.5 n/a
2022 05 16 18:00 257.4 0.0 0.00 76.4 24.7 32.65 n/a
2022 05 16 19:00 258.1 0.0 0.00 75.0 23.9 35.77 n/a
2022 05 16 20:00 259.6 0.0 0.00 70.5 21.4 46.29 n/a
2022 05 16 21:00 260.5 0.0 0.00 67.5 19.7 52.88 n/a
2022 05 16 22:00 261.1 0.0 0.00 65.5 18.6 56.37 n/a
2022 05 16 23:00 261.9 0.0 0.00 62.7 17.0 60.65 n/a
2022 05 16 24:00 262.3 0.0 0.00 61.5 16.4 63.23 n/a
2022 05 17 1:00 263.8 0.0 0.00 60.0 15.6 69.42 n/a
2022 05 17 2:00 265.8 0.0 0.00 58.0 14.4 75.34 n/a
2022 05 17 3:00 265.3 0.0 0.00 58.0 14.5 73.35 n/a
2022 05 17 4:00 264.9 0.0 0.00 57.9 14.4 73.19 n/a
2022 05 17 5:00 264.2 0.0 0.00 58.0 14.5 71.36 n/a
2022 05 17 6:00 263.5 0.0 0.00 57.9 14.4 72.62 n/a
2022 05 17 7:00 262.8 0.0 0.00 60.1 15.6 72.34 n/a
2022 05 17 8:00 262.3 0.0 0.00 63.2 17.3 73.05 n/a
2022 05 17 9:00 262.2 0.0 0.00 65.0 18.3 74.19 n/a
2022 05 17 10:00 261.9 0.0 0.00 66.9 19.4 72.98 n/a
2022 05 17 11:00 260.9 0.0 0.00 69.5 20.8 70.27 n/a
2022 05 17 12:00 260.1 0.0 0.00 73.4 23.0 64.63 n/a
2022 05 17 13:00 260.3 0.0 0.00 75.9 24.4 62.77 n/a
2022 05 17 14:00 260.4 0.0 0.00 77.4 25.2 60.34 n/a
2022 05 17 15:00 260.7 0.0 0.00 78.2 25.7 61.76 n/a
2022 05 17 16:00 260.7 0.0 0.00 79.5 26.4 61.89 n/a
2022 05 17 17:00 260.7 0.0 0.00 80.0 26.7 60.32 n/a
2022 05 17 18:00 260.7 0.0 0.00 80.2 26.8 60.04 n/a
2022 05 17 19:00 261.3 0.0 0.00 78.1 25.6 62.51 n/a
2022 05 17 20:00 261.5 0.0 0.00 75.9 24.4 64.53 n/a
2022 05 17 21:00 261.4 0.0 0.00 75.0 23.9 63.6 n/a
2022 05 17 22:00 261.4 0.0 0.00 73.8 23.3 64.73 n/a
2022 05 17 23:00 261.4 0.0 0.00 72.4 22.4 64.06 n/a
2022 05 17 24:00 Wet 305.3 0.4 9.91 69.2 20.7 70.25 n/a
2022 05 18 1:00 Wet 538.0 0.5 12.45 60.8 16.0 95.4 n/a
2022 05 18 2:00 Wet 492.0 0.1 3.56 60.7 15.9 97.5 n/a
2022 05 18 3:00 Wet 479.5 0.1 2.03 60.7 15.9 98 n/a
2022 05 18 4:00 Wet 376.8 0.0 0.25 60.8 16.0 98.2 n/a
2022 05 18 5:00 Wet 326.3 0.0 0.00 60.9 16.1 97.8 n/a
2022 05 18 6:00 Wet 320.1 0.0 0.00 60.7 16.0 97.4 n/a
2022 05 18 7:00 Wet 286.3 0.0 0.00 61.2 16.2 96.5 n/a
2022 05 18 8:00 261.5 0.0 0.00 64.3 18.0 88.8 n/a
2022 05 18 9:00 260.8 0.0 0.00 67.7 19.8 80.4 n/a
2022 05 18 10:00 260.4 0.0 0.00 70.1 21.1 75.88 n/a
2022 05 18 11:00 259.9 0.0 0.00 72.4 22.4 70.26 n/a
2022 05 18 12:00 259.3 0.0 0.00 74.8 23.8 64.84 n/a
2022 05 18 13:00 259.2 0.0 0.00 76.7 24.9 60.77 n/a
2022 05 18 14:00 259.3 0.0 0.00 78.3 25.7 57.1 n/a
2022 05 18 15:00 260.1 0.0 0.00 79.6 26.4 55.37 n/a
2022 05 18 16:00 260.7 0.0 0.00 79.7 26.5 57.57 n/a
2022 05 18 17:00 260.4 0.0 0.00 79.5 26.4 57.64 n/a
2022 05 18 18:00 260.0 0.0 0.00 79.8 26.6 54.6 n/a
2022 05 18 19:00 260.2 0.0 0.00 78.8 26.0 55.18 n/a
2022 05 18 20:00 262.9 0.0 0.00 74.6 23.6 67.34 n/a
2022 05 18 21:00 268.8 0.0 0.00 70.7 21.5 78.14 n/a
2022 05 18 22:00 Wet 288.0 0.0 0.00 68.6 20.3 84 n/a
2022 05 18 23:00 Wet 326.6 0.0 0.00 66.8 19.3 88.1 n/a
2022 05 18 24:00 Wet 354.5 0.0 0.00 66.3 19.1 87.7 n/a
2022 05 19 1:00 Wet 368.7 0.0 0.00 65.8 18.8 86.3 n/a
2022 05 19 2:00 Wet 390.7 0.0 0.00 64.3 18.0 90.6 n/a
2022 05 19 3:00 Wet 395.8 0.0 0.00 64.5 18.1 89.3 n/a
2022 05 19 4:00 Wet 391.1 0.0 0.00 63.9 17.7 91.4 n/a
2022 05 19 5:00 Wet 337.0 0.0 0.00 64.8 18.2 85.7 n/a
2022 05 19 6:00 Wet 285.8 0.0 0.00 65.4 18.6 82.1 n/a
2022 05 19 7:00 Wet 313.6 0.0 1.02 65.7 18.7 84.5 n/a
2022 05 19 8:00 Wet 426.7 0.0 0.76 64.5 18.1 86.6 n/a
2022 05 19 9:00 Wet 321.7 0.0 0.25 65.4 18.6 84.9 n/a
2022 05 19 10:00 265.8 0.0 0.00 67.1 19.5 83.7 n/a
2022 05 19 11:00 263.2 0.0 0.00 70.6 21.5 79.86 n/a
2022 05 19 12:00 261.3 0.0 0.00 73.7 23.2 75.41 n/a
2022 05 19 13:00 260.8 0.0 0.00 75.1 23.9 70.66 n/a
2022 05 19 14:00 261.0 0.0 0.00 75.3 24.1 67.54 n/a
2022 05 19 15:00 261.0 0.0 0.00 75.9 24.4 66.08 n/a
2022 05 19 16:00 261.4 0.0 0.00 76.1 24.5 67.94 n/a
2022 05 19 17:00 261.5 0.0 0.00 76.5 24.7 67.36 n/a
2022 05 19 18:00 261.8 0.0 0.00 76.6 24.8 67.86 n/a
2022 05 19 19:00 262.4 0.0 0.00 75.6 24.2 71.7 n/a
2022 05 19 20:00 263.6 0.0 0.00 73.6 23.1 77.51 n/a
2022 05 19 21:00 264.8 0.0 0.00 72.7 22.6 83.4 n/a
2022 05 19 22:00 265.4 0.0 0.00 73.2 22.9 85.7 n/a
2022 05 19 23:00 264.2 0.0 0.00 74.1 23.4 77.8 n/a
2022 05 19 24:00 263.4 0.0 0.00 74.0 23.3 73.57 n/a
2022 05 20 1:00 263.4 0.0 0.00 73.7 23.2 72.26 n/a
2022 05 20 2:00 263.0 0.0 0.00 73.5 23.1 69.92 n/a
2022 05 20 3:00 262.7 0.0 0.00 73.3 23.0 68.11 n/a
2022 05 20 4:00 262.7 0.0 0.00 73.1 22.9 68.45 n/a
2022 05 20 5:00 262.7 0.0 0.00 73.6 23.1 67.81 n/a
2022 05 20 6:00 262.6 0.0 0.00 74.5 23.6 67 n/a
2022 05 20 7:00 262.1 0.0 0.00 74.9 23.9 68.35 n/a
2022 05 20 8:00 261.7 0.0 0.00 75.7 24.3 68.52 n/a
2022 05 20 9:00 261.4 0.0 0.00 76.5 24.7 67.78 n/a
2022 05 20 10:00 261.7 0.0 0.00 77.0 25.0 67.52 n/a
2022 05 20 11:00 261.7 0.0 0.00 77.3 25.2 68.9 n/a
2022 05 20 12:00 261.4 0.0 0.00 78.5 25.9 67.9 n/a
2022 05 20 13:00 261.4 0.0 0.00 79.1 26.1 67.25 n/a
2022 05 20 14:00 261.6 0.0 0.00 75.2 24.0 71.99 n/a
2022 05 20 15:00 261.4 0.0 0.00 74.6 23.7 69.88 n/a
2022 05 20 16:00 261.3 0.0 0.00 74.2 23.5 67.87 n/a
2022 05 20 17:00 262.0 0.0 0.00 72.2 22.4 68.75 n/a
2022 05 20 18:00 262.1 0.0 0.00 70.0 21.1 67.94 n/a
2022 05 20 19:00 262.1 0.0 0.00 67.6 19.8 67.23 n/a
2022 05 20 20:00 277.2 0.0 0.00 66.0 18.9 63.88 n/a
2022 05 20 21:00 266.0 0.0 0.00 63.9 17.7 60.09 n/a
2022 05 20 22:00 Wet 320.9 0.1 3.30 61.0 16.1 66.72 n/a
2022 05 20 23:00 Wet 363.9 0.1 1.78 55.9 13.3 78.91 n/a
2022 05 20 24:00 Wet 357.0 0.0 0.76 54.4 12.4 83.9 n/a
2022 05 21 1:00 Wet 309.2 0.1 1.52 53.3 11.8 84.6 n/a
2022 05 21 2:00 Wet 360.6 0.0 0.76 53.2 11.8 87 n/a
2022 05 21 3:00 Wet 346.3 0.0 0.00 53.7 12.1 86.5 n/a
2022 05 21 4:00 Wet 337.7 0.0 0.51 54.3 12.4 86.1 n/a
2022 05 21 5:00 Wet 425.4 0.1 2.03 54.0 12.2 82.1 n/a
2022 05 21 6:00 Wet 454.5 0.1 2.03 52.1 11.2 82.4 n/a
2022 05 21 7:00 Wet 387.7 0.0 0.51 50.8 10.5 79.6 n/a
2022 05 21 8:00 Wet 307.1 0.0 0.00 50.8 10.4 82.3 n/a
2022 05 21 9:00 263.9 0.0 0.00 52.4 11.3 76.91 n/a
2022 05 21 10:00 262.2 0.0 0.00 54.5 12.5 70.62 n/a
2022 05 21 11:00 261.6 0.0 0.00 56.0 13.3 67.14 n/a
2022 05 21 12:00 261.8 0.0 0.00 56.3 13.5 68.08 n/a
2022 05 21 13:00 261.3 0.0 0.00 57.8 14.3 66.05 n/a
2022 05 21 14:00 261.2 0.0 0.00 58.8 14.9 63.4 n/a
2022 05 21 15:00 261.2 0.0 0.00 59.5 15.3 61.87 n/a
2022 05 21 16:00 261.3 0.0 0.00 59.8 15.4 60.73 n/a
2022 05 21 17:00 261.2 0.0 0.00 59.9 15.5 59.62 n/a
2022 05 21 18:00 261.5 0.0 0.00 58.8 14.9 58.97 n/a
2022 05 21 19:00 261.0 0.0 0.00 59.2 15.1 53.4 n/a
2022 05 21 20:00 261.9 0.0 0.00 56.8 13.8 56.37 n/a
2022 05 21 21:00 262.3 0.0 0.00 54.3 12.4 60.43 n/a
2022 05 21 22:00 262.8 0.0 0.00 52.3 11.3 65.38 n/a
2022 05 21 23:00 262.9 0.0 0.00 50.8 10.4 64.66 n/a
2022 05 21 24:00 263.5 0.0 0.00 48.7 9.3 70.07 n/a
2022 05 22 1:00 262.9 0.0 0.00 48.3 9.0 65.94 n/a
2022 05 22 2:00 263.4 0.0 0.00 46.9 8.3 68.99 n/a
2022 05 22 3:00 263.9 0.0 0.00 45.7 7.6 71.93 n/a
2022 05 22 4:00 264.5 0.0 0.00 44.9 7.2 75.44 n/a
2022 05 22 5:00 263.8 0.0 0.00 45.6 7.6 74.49 n/a
2022 05 22 6:00 264.3 0.0 0.00 45.3 7.4 73.97 n/a
2022 05 22 7:00 262.9 0.0 0.00 46.7 8.2 71.83 n/a
2022 05 22 8:00 261.1 0.0 0.00 50.1 10.1 58.41 n/a
2022 05 22 9:00 259.4 0.0 0.00 53.8 12.1 48.51 n/a
2022 05 22 10:00 258.6 0.0 0.00 55.8 13.2 41.36 n/a
2022 05 22 11:00 258.1 0.0 0.00 57.3 14.1 40.1 n/a
2022 05 22 12:00 257.8 0.0 0.00 59.3 15.2 39.25 n/a
2022 05 22 13:00 257.9 0.0 0.00 60.9 16.1 39.49 n/a
2022 05 22 14:00 258.1 0.0 0.00 62.2 16.8 38.15 n/a
2022 05 22 15:00 258.5 0.0 0.00 63.5 17.5 34.55 n/a
2022 05 22 16:00 258.7 0.0 0.00 64.3 17.9 33.83 n/a
2022 05 22 17:00 258.5 0.0 0.00 64.5 18.0 33.73 n/a
2022 05 22 18:00 258.5 0.0 0.00 64.1 17.8 34.02 n/a
2022 05 22 19:00 258.7 0.0 0.00 62.7 17.0 36.79 n/a
2022 05 22 20:00 260.2 0.0 0.00 59.2 15.1 46.12 n/a
2022 05 22 21:00 261.5 0.0 0.00 55.6 13.1 55.93 n/a
2022 05 22 22:00 262.3 0.0 0.00 53.3 11.9 62.38 n/a
2022 05 22 23:00 262.5 0.0 0.00 52.1 11.2 64.58 n/a
2022 05 22 24:00 265.4 0.0 0.00 49.1 9.5 74.3 n/a
2022 05 23 1:00 268.6 0.0 0.00 47.5 8.6 77.69 n/a
2022 05 23 2:00 272.1 0.0 0.00 46.7 8.2 79.63 n/a
2022 05 23 3:00 271.2 0.0 0.00 46.7 8.1 80.1 n/a
2022 05 23 4:00 271.2 0.0 0.00 45.7 7.6 83.2 n/a
2022 05 23 5:00 273.4 0.0 0.00 45.1 7.3 84.8 n/a
2022 05 23 6:00 Wet 287.9 0.0 0.00 44.6 7.0 87.2 n/a
2022 05 23 7:00 262.1 0.0 0.00 48.8 9.3 75.78 n/a
2022 05 23 8:00 260.7 0.0 0.00 53.0 11.7 66.81 n/a
2022 05 23 9:00 259.7 0.0 0.00 55.5 13.1 62.86 n/a
2022 05 23 10:00 259.0 0.0 0.00 58.6 14.8 55.06 n/a
2022 05 23 11:00 258.3 0.0 0.00 60.4 15.8 47.65 n/a
2022 05 23 12:00 258.1 0.0 0.00 61.7 16.5 46.85 n/a
2022 05 23 13:00 258.5 0.0 0.00 62.0 16.7 48.5 n/a
2022 05 23 14:00 259.0 0.0 0.00 61.8 16.6 46.36 n/a
2022 05 23 15:00 259.1 0.0 0.00 61.9 16.6 46.49 n/a
2022 05 23 16:00 259.4 0.0 0.00 61.6 16.4 50.26 n/a
2022 05 23 17:00 259.7 0.0 0.00 61.4 16.3 54.7 n/a
2022 05 23 18:00 260.6 0.0 0.00 60.7 15.9 58.03 n/a
2022 05 23 19:00 260.9 0.0 0.00 59.7 15.4 61.02 n/a
2022 05 23 20:00 261.5 0.0 0.00 59.1 15.1 63.14 n/a
2022 05 23 21:00 261.5 0.0 0.00 58.7 14.8 65.41 n/a
2022 05 23 22:00 261.5 0.0 0.00 58.4 14.7 65.36 n/a
2022 05 23 23:00 262.0 0.0 0.00 58.2 14.5 67.15 n/a
2022 05 23 24:00 262.7 0.0 0.00 57.6 14.2 69.53 n/a
2022 05 24 1:00 Wet 334.6 0.0 0.00 56.5 13.6 75.23 n/a
2022 05 24 2:00 Wet 396.6 0.0 0.00 55.7 13.2 80.6 n/a
2022 05 24 3:00 Wet 367.8 0.0 0.25 54.7 12.6 86.2 n/a
2022 05 24 4:00 Wet 480.4 0.0 1.02 54.4 12.5 88.8 n/a
2022 05 24 5:00 Wet 479.9 0.0 0.51 53.4 11.9 90.9 n/a
2022 05 24 6:00 Wet 520.4 0.1 2.03 53.1 11.7 93.8 n/a
2022 05 24 7:00 Wet 460.0 0.0 1.02 53.3 11.8 95.3 n/a
2022 05 24 8:00 Wet 386.7 0.0 0.00 53.9 12.1 95.1 n/a
2022 05 24 9:00 Wet 462.8 0.0 0.76 54.4 12.4 93.4 n/a
2022 05 24 10:00 Wet 412.2 0.0 0.51 55.7 13.2 90.9 n/a
2022 05 24 11:00 Wet 546.8 0.2 5.84 56.2 13.5 91.3 n/a
2022 05 24 12:00 Wet 519.8 0.4 10.67 55.2 12.9 95.4 n/a
2022 05 24 13:00 Wet 342.9 0.0 0.76 56.1 13.4 93.7 n/a
2022 05 24 14:00 Wet 374.9 0.1 1.27 58.5 14.7 90.9 n/a
2022 05 24 15:00 Wet 478.3 0.2 3.81 59.9 15.5 90.6 n/a
2022 05 24 16:00 Wet 324.2 0.0 0.51 61.3 16.3 93.1 n/a
2022 05 24 17:00 Wet 424.9 0.1 2.03 61.9 16.6 91.2 n/a
2022 05 24 18:00 Wet 339.4 0.0 0.25 61.4 16.3 95 n/a
2022 05 24 19:00 Wet 385.0 0.0 0.25 61.4 16.3 94.6 n/a
2022 05 24 20:00 Wet 340.4 0.0 0.00 61.3 16.3 95.2 n/a
2022 05 24 21:00 Wet 312.0 0.0 0.00 61.4 16.3 95.4 n/a
2022 05 24 22:00 Wet 284.7 0.0 0.00 61.6 16.5 95.2 n/a
2022 05 24 23:00 269.1 0.0 0.00 61.9 16.6 94.8 n/a
2022 05 24 24:00 268.2 0.0 0.00 62.0 16.6 94.9 n/a
2022 05 25 1:00 268.3 0.0 0.00 62.0 16.7 95.1 n/a
2022 05 25 2:00 275.1 0.0 0.00 61.7 16.5 95.3 n/a
2022 05 25 3:00 Wet 304.6 0.0 0.00 61.2 16.2 96.4 n/a
2022 05 25 4:00 Wet 291.7 0.0 0.00 61.5 16.4 96.8 n/a
2022 05 25 5:00 Wet 284.6 0.0 0.00 61.6 16.4 96.2 n/a
2022 05 25 6:00 Wet 477.1 0.0 0.51 61.3 16.3 96.7 n/a
2022 05 25 7:00 Wet 495.4 0.0 0.76 61.3 16.3 97.4 n/a
2022 05 25 8:00 Wet 537.1 0.1 1.78 61.5 16.4 97.6 n/a
2022 05 25 9:00 Wet 504.7 0.0 0.76 61.6 16.4 97.9 n/a
2022 05 25 10:00 Wet 449.9 0.0 0.25 62.3 16.9 98.2 n/a
2022 05 25 11:00 Wet 387.1 0.0 0.00 64.6 18.1 97.7 n/a
2022 05 25 12:00 Wet 507.6 0.5 11.43 64.7 18.2 96.4 n/a
2022 05 25 13:00 Wet 451.0 0.0 0.76 63.1 17.3 97.9 n/a
2022 05 25 14:00 276.8 0.0 0.00 65.8 18.8 85.9 n/a
2022 05 25 15:00 263.2 0.0 0.00 68.2 20.1 75.77 n/a
2022 05 25 16:00 Wet 295.6 0.0 0.25 68.3 20.1 74.85 n/a
2022 05 25 17:00 263.2 0.0 0.00 66.3 19.0 71.62 n/a
2022 05 25 18:00 263.3 0.0 0.00 63.3 17.4 73.9 n/a
2022 05 25 19:00 263.5 0.0 0.00 60.9 16.1 76.43 n/a
2022 05 25 20:00 264.1 0.0 0.00 59.1 15.1 76.47 n/a
2022 05 25 21:00 264.8 0.0 0.00 57.8 14.3 79.93 n/a
2022 05 25 22:00 264.8 0.0 0.00 57.7 14.3 81.1 n/a
2022 05 25 23:00 264.9 0.0 0.00 57.3 14.0 82.6 n/a
2022 05 25 24:00 264.9 0.0 0.00 56.8 13.8 81.6 n/a
2022 05 26 1:00 264.9 0.0 0.00 56.6 13.7 80.5 n/a
2022 05 26 2:00 264.9 0.0 0.00 55.9 13.3 81.3 n/a
2022 05 26 3:00 265.7 0.0 0.00 55.5 13.1 83.1 n/a
2022 05 26 4:00 Wet 428.6 0.0 0.00 55.1 12.8 86.4 n/a
2022 05 26 5:00 Wet 427.7 0.0 0.00 54.3 12.4 90.7 n/a
2022 05 26 6:00 Wet 435.3 0.0 0.25 54.1 12.3 94.7 n/a
2022 05 26 7:00 Wet 462.8 0.0 0.76 54.5 12.5 95.2 n/a
2022 05 26 8:00 Wet 491.4 0.0 0.76 54.6 12.5 94.9 n/a
2022 05 26 9:00 Wet 384.3 0.0 0.00 55.1 12.8 87.4 n/a
2022 05 26 10:00 Wet 284.0 0.0 0.00 56.8 13.8 86.6 n/a
2022 05 26 11:00 263.5 0.0 0.00 58.2 14.5 83.2 n/a
2022 05 26 12:00 262.4 0.0 0.00 60.4 15.8 77.21 n/a
2022 05 26 13:00 262.0 0.0 0.00 61.9 16.6 71.43 n/a
2022 05 26 14:00 263.8 0.0 0.00 61.1 16.2 74.65 n/a
2022 05 26 15:00 262.9 0.0 0.00 61.8 16.6 76.84 n/a
2022 05 26 16:00 263.3 0.0 0.25 61.3 16.3 77.77 n/a
2022 05 26 17:00 263.5 0.0 0.00 60.0 15.5 78.6 n/a
2022 05 26 18:00 263.5 0.0 0.00 58.3 14.6 78.76 n/a
2022 05 26 19:00 263.9 0.0 0.00 57.3 14.1 78.84 n/a
2022 05 26 20:00 264.2 0.0 0.00 56.1 13.4 79.52 n/a
2022 05 26 21:00 264.2 0.0 0.00 55.6 13.1 79.28 n/a
2022 05 26 22:00 264.2 0.0 0.00 54.9 12.7 79.53 n/a
2022 05 26 23:00 264.3 0.0 0.00 54.4 12.4 78.35 n/a
2022 05 26 24:00 269.3 0.0 0.00 52.1 11.2 83.9 n/a
2022 05 27 1:00 Wet 294.0 0.0 0.00 50.1 10.1 87.9 n/a
2022 05 27 2:00 Wet 331.8 0.0 0.00 49.0 9.4 90.1 n/a
2022 05 27 3:00 Wet 374.8 0.0 0.00 47.9 8.8 93.3 n/a
2022 05 27 4:00 Wet 426.2 0.0 0.00 47.3 8.5 95.3 n/a
2022 05 27 5:00 Wet 417.1 0.0 0.00 47.2 8.4 95.1 n/a
2022 05 27 6:00 Wet 397.1 0.0 0.00 47.6 8.7 95.2 n/a
2022 05 27 7:00 Wet 296.8 0.0 0.00 50.8 10.4 87.6 n/a
2022 05 27 8:00 262.0 0.0 0.00 54.6 12.6 77.57 n/a
2022 05 27 9:00 260.7 0.0 0.00 59.0 15.0 66.12 n/a
2022 05 27 10:00 259.8 0.0 0.00 62.7 17.1 59.65 n/a
2022 05 27 11:00 259.3 0.0 0.00 66.1 19.0 55.83 n/a
2022 05 27 12:00 259.2 0.0 0.00 68.5 20.3 55.04 n/a
2022 05 27 13:00 259.3 0.0 0.00 71.0 21.6 52.18 n/a
2022 05 27 14:00 259.3 0.0 0.00 73.0 22.8 49.98 n/a
2022 05 27 15:00 259.8 0.0 0.00 74.6 23.7 47.44 n/a
2022 05 27 16:00 259.9 0.0 0.00 75.4 24.1 47.3 n/a
2022 05 27 17:00 259.3 0.0 0.00 76.2 24.6 44.44 n/a
2022 05 27 18:00 259.3 0.0 0.00 76.3 24.6 46.19 n/a
2022 05 27 19:00 260.0 0.0 0.00 74.4 23.5 51.02 n/a
2022 05 27 20:00 261.5 0.0 0.00 71.0 21.6 56.39 n/a
2022 05 27 21:00 263.0 0.0 0.00 67.4 19.7 65.18 n/a
CST mV in mm F C % mph
Year Month Day Hour Leaf Wetness Total
Precipitation
Avg. Temp Avg. Rel.
Humidity
Wind
Speed

Back to the top of the page